sensor_id;sensor_type;location;lat;lon;timestamp;temperature;humidity
15231;DHT22;32569;51.762;8.564;2022-08-04T00:02:12;22.00;99.90
15231;DHT22;32569;51.762;8.564;2022-08-04T00:04:44;21.90;99.90
15231;DHT22;32569;51.762;8.564;2022-08-04T00:07:18;21.90;99.90
15231;DHT22;32569;51.762;8.564;2022-08-04T00:09:51;21.80;99.90
15231;DHT22;32569;51.762;8.564;2022-08-04T00:12:24;21.90;99.90
15231;DHT22;32569;51.762;8.564;2022-08-04T00:14:54;21.90;99.90
15231;DHT22;32569;51.762;8.564;2022-08-04T00:17:27;22.10;99.90
15231;DHT22;32569;51.762;8.564;2022-08-04T00:20:00;22.20;99.90
15231;DHT22;32569;51.762;8.564;2022-08-04T00:22:28;22.00;99.90
15231;DHT22;32569;51.762;8.564;2022-08-04T00:24:59;21.70;99.90
15231;DHT22;32569;51.762;8.564;2022-08-04T00:27:27;21.70;99.90
15231;DHT22;32569;51.762;8.564;2022-08-04T00:29:55;21.80;99.90
15231;DHT22;32569;51.762;8.564;2022-08-04T00:32:22;21.70;99.90
15231;DHT22;32569;51.762;8.564;2022-08-04T00:34:49;21.70;99.90
15231;DHT22;32569;51.762;8.564;2022-08-04T00:37:16;21.70;99.90
15231;DHT22;32569;51.762;8.564;2022-08-04T00:39:46;21.70;99.90
15231;DHT22;32569;51.762;8.564;2022-08-04T00:42:31;21.70;99.90
15231;DHT22;32569;51.762;8.564;2022-08-04T00:45:12;21.60;99.90
15231;DHT22;32569;51.762;8.564;2022-08-04T00:47:56;21.50;99.90
15231;DHT22;32569;51.762;8.564;2022-08-04T00:50:32;21.40;99.90
15231;DHT22;32569;51.762;8.564;2022-08-04T00:53:06;21.30;99.90
15231;DHT22;32569;51.762;8.564;2022-08-04T00:58:49;21.50;99.90
15231;DHT22;32569;51.762;8.564;2022-08-04T01:01:28;21.50;99.90
15231;DHT22;32569;51.762;8.564;2022-08-04T01:04:02;21.50;99.90
15231;DHT22;32569;51.762;8.564;2022-08-04T01:06:35;21.50;99.90
15231;DHT22;32569;51.762;8.564;2022-08-04T01:09:14;21.60;99.90
15231;DHT22;32569;51.762;8.564;2022-08-04T01:11:53;21.70;99.90
15231;DHT22;32569;51.762;8.564;2022-08-04T01:14:40;21.70;99.90
15231;DHT22;32569;51.762;8.564;2022-08-04T01:17:19;21.60;99.90
15231;DHT22;32569;51.762;8.564;2022-08-04T01:19:58;21.40;99.90
15231;DHT22;32569;51.762;8.564;2022-08-04T01:25:59;21.10;99.90
15231;DHT22;32569;51.762;8.564;2022-08-04T01:28:33;21.00;99.90
15231;DHT22;32569;51.762;8.564;2022-08-04T01:31:10;21.00;99.90
15231;DHT22;32569;51.762;8.564;2022-08-04T01:33:41;20.90;99.90
15231;DHT22;32569;51.762;8.564;2022-08-04T01:36:12;20.90;99.90
15231;DHT22;32569;51.762;8.564;2022-08-04T01:38:39;20.90;99.90
15231;DHT22;32569;51.762;8.564;2022-08-04T01:41:13;20.80;99.90
15231;DHT22;32569;51.762;8.564;2022-08-04T01:43:41;20.70;99.90
15231;DHT22;32569;51.762;8.564;2022-08-04T01:46:11;20.70;99.90
15231;DHT22;32569;51.762;8.564;2022-08-04T01:48:40;20.60;99.90
15231;DHT22;32569;51.762;8.564;2022-08-04T01:51:08;20.40;99.90
15231;DHT22;32569;51.762;8.564;2022-08-04T01:53:37;20.50;99.90
15231;DHT22;32569;51.762;8.564;2022-08-04T01:56:05;20.50;99.90
15231;DHT22;32569;51.762;8.564;2022-08-04T01:58:33;20.30;99.90
15231;DHT22;32569;51.762;8.564;2022-08-04T02:01:02;20.20;99.90
15231;DHT22;32569;51.762;8.564;2022-08-04T02:03:32;20.20;99.90
15231;DHT22;32569;51.762;8.564;2022-08-04T02:06:05;20.20;99.90
15231;DHT22;32569;51.762;8.564;2022-08-04T02:08:48;20.10;99.90
15231;DHT22;32569;51.762;8.564;2022-08-04T02:11:19;20.10;99.90
15231;DHT22;32569;51.762;8.564;2022-08-04T02:13:53;20.20;99.90
15231;DHT22;32569;51.762;8.564;2022-08-04T02:16:27;20.10;99.90
15231;DHT22;32569;51.762;8.564;2022-08-04T02:19:01;20.10;99.90
15231;DHT22;32569;51.762;8.564;2022-08-04T02:21:30;20.10;99.90
15231;DHT22;32569;51.762;8.564;2022-08-04T02:24:00;20.00;99.90
15231;DHT22;32569;51.762;8.564;2022-08-04T02:26:28;20.00;99.90
15231;DHT22;32569;51.762;8.564;2022-08-04T02:29:02;20.10;99.90
15231;DHT22;32569;51.762;8.564;2022-08-04T02:31:32;20.20;99.90
15231;DHT22;32569;51.762;8.564;2022-08-04T02:34:06;20.30;99.90
15231;DHT22;32569;51.762;8.564;2022-08-04T02:36:36;20.30;99.90
15231;DHT22;32569;51.762;8.564;2022-08-04T02:39:04;20.10;99.90
15231;DHT22;32569;51.762;8.564;2022-08-04T02:41:32;20.00;99.90
15231;DHT22;32569;51.762;8.564;2022-08-04T02:44:00;19.90;99.90
15231;DHT22;32569;51.762;8.564;2022-08-04T02:46:28;19.90;99.90
15231;DHT22;32569;51.762;8.564;2022-08-04T02:48:55;19.90;99.90
15231;DHT22;32569;51.762;8.564;2022-08-04T02:51:26;19.80;99.90
15231;DHT22;32569;51.762;8.564;2022-08-04T02:53:54;19.80;99.90
15231;DHT22;32569;51.762;8.564;2022-08-04T02:56:22;19.90;99.90
15231;DHT22;32569;51.762;8.564;2022-08-04T02:58:52;19.80;99.90
15231;DHT22;32569;51.762;8.564;2022-08-04T03:01:20;19.70;99.90
15231;DHT22;32569;51.762;8.564;2022-08-04T03:03:52;19.70;99.90
15231;DHT22;32569;51.762;8.564;2022-08-04T03:06:53;19.50;99.90
15231;DHT22;32569;51.762;8.564;2022-08-04T03:09:48;19.40;99.90
15231;DHT22;32569;51.762;8.564;2022-08-04T03:12:46;19.50;99.90
15231;DHT22;32569;51.762;8.564;2022-08-04T03:15:41;19.50;99.90
15231;DHT22;32569;51.762;8.564;2022-08-04T03:24:56;19.40;99.90
15231;DHT22;32569;51.762;8.564;2022-08-04T03:30:28;19.40;99.90
15231;DHT22;32569;51.762;8.564;2022-08-04T03:33:26;19.40;99.90
15231;DHT22;32569;51.762;8.564;2022-08-04T03:36:22;19.40;99.90
15231;DHT22;32569;51.762;8.564;2022-08-04T03:39:13;19.30;99.90
15231;DHT22;32569;51.762;8.564;2022-08-04T03:42:07;19.20;99.90
15231;DHT22;32569;51.762;8.564;2022-08-04T03:48:07;19.20;99.90
15231;DHT22;32569;51.762;8.564;2022-08-04T03:50:51;19.10;99.90
15231;DHT22;32569;51.762;8.564;2022-08-04T03:53:43;19.00;99.90
15231;DHT22;32569;51.762;8.564;2022-08-04T03:59:25;19.00;99.90
15231;DHT22;32569;51.762;8.564;2022-08-04T04:02:20;19.20;99.90
15231;DHT22;32569;51.762;8.564;2022-08-04T04:11:22;19.00;99.90
15231;DHT22;32569;51.762;8.564;2022-08-04T04:14:11;19.10;99.90
15231;DHT22;32569;51.762;8.564;2022-08-04T04:17:02;19.10;99.90
15231;DHT22;32569;51.762;8.564;2022-08-04T04:22:50;19.10;99.90
15231;DHT22;32569;51.762;8.564;2022-08-04T04:25:30;19.10;99.90
15231;DHT22;32569;51.762;8.564;2022-08-04T04:28:26;19.20;99.90
15231;DHT22;32569;51.762;8.564;2022-08-04T04:31:02;19.30;99.90
15231;DHT22;32569;51.762;8.564;2022-08-04T04:33:50;19.50;99.90
15231;DHT22;32569;51.762;8.564;2022-08-04T04:36:24;19.40;99.90
15231;DHT22;32569;51.762;8.564;2022-08-04T04:39:05;19.50;99.90
15231;DHT22;32569;51.762;8.564;2022-08-04T04:41:47;19.50;99.90
15231;DHT22;32569;51.762;8.564;2022-08-04T04:47:36;19.70;99.90
15231;DHT22;32569;51.762;8.564;2022-08-04T04:50:13;19.80;99.90
15231;DHT22;32569;51.762;8.564;2022-08-04T04:52:44;19.90;99.90
15231;DHT22;32569;51.762;8.564;2022-08-04T04:55:18;20.10;99.90
15231;DHT22;32569;51.762;8.564;2022-08-04T04:57:47;20.40;99.90
15231;DHT22;32569;51.762;8.564;2022-08-04T05:00:16;21.00;99.90
15231;DHT22;32569;51.762;8.564;2022-08-04T05:03:08;21.20;99.90
15231;DHT22;32569;51.762;8.564;2022-08-04T05:06:06;21.50;99.90
15231;DHT22;32569;51.762;8.564;2022-08-04T05:08:50;21.70;99.90
15231;DHT22;32569;51.762;8.564;2022-08-04T05:11:36;21.90;99.90
15231;DHT22;32569;51.762;8.564;2022-08-04T05:14:10;22.10;99.90
15231;DHT22;32569;51.762;8.564;2022-08-04T05:16:43;22.30;99.90
15231;DHT22;32569;51.762;8.564;2022-08-04T05:19:19;22.40;99.90
15231;DHT22;32569;51.762;8.564;2022-08-04T05:21:55;22.80;99.90
15231;DHT22;32569;51.762;8.564;2022-08-04T05:24:24;22.80;99.90
15231;DHT22;32569;51.762;8.564;2022-08-04T05:26:54;22.80;99.90
15231;DHT22;32569;51.762;8.564;2022-08-04T05:29:26;22.90;99.90
15231;DHT22;32569;51.762;8.564;2022-08-04T05:31:55;23.00;99.90
15231;DHT22;32569;51.762;8.564;2022-08-04T05:34:25;22.80;99.90
15231;DHT22;32569;51.762;8.564;2022-08-04T05:36:57;22.60;99.90
15231;DHT22;32569;51.762;8.564;2022-08-04T05:39:26;22.40;99.90
15231;DHT22;32569;51.762;8.564;2022-08-04T05:41:54;22.40;99.90
15231;DHT22;32569;51.762;8.564;2022-08-04T05:44:24;22.30;99.90
15231;DHT22;32569;51.762;8.564;2022-08-04T05:46:54;22.50;99.90
15231;DHT22;32569;51.762;8.564;2022-08-04T05:49:22;22.70;99.90
15231;DHT22;32569;51.762;8.564;2022-08-04T05:51:51;23.00;99.90
15231;DHT22;32569;51.762;8.564;2022-08-04T05:54:19;23.80;99.90
15231;DHT22;32569;51.762;8.564;2022-08-04T05:56:47;24.20;99.90
15231;DHT22;32569;51.762;8.564;2022-08-04T05:59:16;24.50;99.90
15231;DHT22;32569;51.762;8.564;2022-08-04T06:01:45;24.40;99.90
15231;DHT22;32569;51.762;8.564;2022-08-04T06:04:12;24.20;99.90
15231;DHT22;32569;51.762;8.564;2022-08-04T06:06:41;24.40;99.90
15231;DHT22;32569;51.762;8.564;2022-08-04T06:09:09;24.60;99.90
15231;DHT22;32569;51.762;8.564;2022-08-04T06:11:38;24.60;99.90
15231;DHT22;32569;51.762;8.564;2022-08-04T06:14:07;24.90;99.90
15231;DHT22;32569;51.762;8.564;2022-08-04T06:16:38;25.20;99.90
15231;DHT22;32569;51.762;8.564;2022-08-04T06:19:07;25.20;99.90
15231;DHT22;32569;51.762;8.564;2022-08-04T06:21:38;25.60;99.90
15231;DHT22;32569;51.762;8.564;2022-08-04T06:24:10;25.90;99.90
15231;DHT22;32569;51.762;8.564;2022-08-04T06:26:40;26.20;99.90
15231;DHT22;32569;51.762;8.564;2022-08-04T06:29:08;26.60;99.90
15231;DHT22;32569;51.762;8.564;2022-08-04T06:31:42;26.50;99.90
15231;DHT22;32569;51.762;8.564;2022-08-04T06:34:17;26.60;99.90
15231;DHT22;32569;51.762;8.564;2022-08-04T06:36:46;26.70;99.90
15231;DHT22;32569;51.762;8.564;2022-08-04T06:39:14;26.60;99.90
15231;DHT22;32569;51.762;8.564;2022-08-04T06:41:47;26.60;99.90
15231;DHT22;32569;51.762;8.564;2022-08-04T06:44:16;26.40;99.90
15231;DHT22;32569;51.762;8.564;2022-08-04T06:46:45;26.40;99.90
15231;DHT22;32569;51.762;8.564;2022-08-04T06:49:16;26.30;99.90
15231;DHT22;32569;51.762;8.564;2022-08-04T06:51:46;26.20;99.90
15231;DHT22;32569;51.762;8.564;2022-08-04T06:54:13;26.20;99.90
15231;DHT22;32569;51.762;8.564;2022-08-04T06:56:45;26.20;99.90
15231;DHT22;32569;51.762;8.564;2022-08-04T06:59:17;26.20;99.90
15231;DHT22;32569;51.762;8.564;2022-08-04T07:01:48;26.30;99.90
15231;DHT22;32569;51.762;8.564;2022-08-04T07:04:19;26.30;99.90
15231;DHT22;32569;51.762;8.564;2022-08-04T07:06:49;26.50;99.90
15231;DHT22;32569;51.762;8.564;2022-08-04T07:09:18;26.60;99.90
15231;DHT22;32569;51.762;8.564;2022-08-04T07:11:53;26.60;99.90
15231;DHT22;32569;51.762;8.564;2022-08-04T07:14:21;26.60;99.90
15231;DHT22;32569;51.762;8.564;2022-08-04T07:16:53;26.70;99.90
15231;DHT22;32569;51.762;8.564;2022-08-04T07:19:23;26.80;99.90
15231;DHT22;32569;51.762;8.564;2022-08-04T07:21:51;26.80;99.90
15231;DHT22;32569;51.762;8.564;2022-08-04T07:24:31;27.10;99.90
15231;DHT22;32569;51.762;8.564;2022-08-04T07:27:03;27.20;99.90
15231;DHT22;32569;51.762;8.564;2022-08-04T07:29:32;27.20;99.30
15231;DHT22;32569;51.762;8.564;2022-08-04T07:32:02;27.20;99.70
15231;DHT22;32569;51.762;8.564;2022-08-04T07:34:33;27.30;99.80
15231;DHT22;32569;51.762;8.564;2022-08-04T07:37:06;27.40;99.10
15231;DHT22;32569;51.762;8.564;2022-08-04T07:39:41;27.60;99.00
15231;DHT22;32569;51.762;8.564;2022-08-04T07:42:13;27.70;99.10
15231;DHT22;32569;51.762;8.564;2022-08-04T07:44:45;27.80;98.20
15231;DHT22;32569;51.762;8.564;2022-08-04T07:47:15;27.80;98.10
15231;DHT22;32569;51.762;8.564;2022-08-04T07:49:45;27.90;98.00
15231;DHT22;32569;51.762;8.564;2022-08-04T07:52:13;27.90;97.60
15231;DHT22;32569;51.762;8.564;2022-08-04T07:54:46;28.10;98.20
15231;DHT22;32569;51.762;8.564;2022-08-04T07:57:19;28.10;98.20
15231;DHT22;32569;51.762;8.564;2022-08-04T07:59:48;28.20;98.20
15231;DHT22;32569;51.762;8.564;2022-08-04T08:02:19;28.30;98.00
15231;DHT22;32569;51.762;8.564;2022-08-04T08:04:49;28.30;97.10
15231;DHT22;32569;51.762;8.564;2022-08-04T08:07:19;28.30;98.40
15231;DHT22;32569;51.762;8.564;2022-08-04T08:09:50;28.50;97.00
15231;DHT22;32569;51.762;8.564;2022-08-04T08:12:35;28.70;95.90
15231;DHT22;32569;51.762;8.564;2022-08-04T08:15:05;28.90;96.20
15231;DHT22;32569;51.762;8.564;2022-08-04T08:17:34;28.90;97.30
15231;DHT22;32569;51.762;8.564;2022-08-04T08:20:03;28.90;96.70
15231;DHT22;32569;51.762;8.564;2022-08-04T08:22:30;28.90;96.60
15231;DHT22;32569;51.762;8.564;2022-08-04T08:24:57;28.90;96.10
15231;DHT22;32569;51.762;8.564;2022-08-04T08:27:25;28.90;96.10
15231;DHT22;32569;51.762;8.564;2022-08-04T08:29:52;28.90;97.20
15231;DHT22;32569;51.762;8.564;2022-08-04T08:32:19;28.90;97.20
15231;DHT22;32569;51.762;8.564;2022-08-04T08:34:46;28.90;96.00
15231;DHT22;32569;51.762;8.564;2022-08-04T08:37:19;29.00;96.30
15231;DHT22;32569;51.762;8.564;2022-08-04T08:39:54;29.10;96.00
15231;DHT22;32569;51.762;8.564;2022-08-04T08:42:50;29.20;95.30
15231;DHT22;32569;51.762;8.564;2022-08-04T08:45:50;29.10;95.60
15231;DHT22;32569;51.762;8.564;2022-08-04T08:48:40;29.20;95.60
15231;DHT22;32569;51.762;8.564;2022-08-04T08:51:22;29.20;95.20
15231;DHT22;32569;51.762;8.564;2022-08-04T08:54:15;29.30;95.30
15231;DHT22;32569;51.762;8.564;2022-08-04T08:56:55;29.40;95.60
15231;DHT22;32569;51.762;8.564;2022-08-04T08:59:36;29.50;95.30
15231;DHT22;32569;51.762;8.564;2022-08-04T09:02:31;29.60;94.80
15231;DHT22;32569;51.762;8.564;2022-08-04T09:05:12;29.60;94.90
15231;DHT22;32569;51.762;8.564;2022-08-04T09:07:56;29.70;95.10
15231;DHT22;32569;51.762;8.564;2022-08-04T09:10:32;29.60;94.60
15231;DHT22;32569;51.762;8.564;2022-08-04T09:13:05;29.70;94.60
15231;DHT22;32569;51.762;8.564;2022-08-04T09:15:40;29.80;94.00
15231;DHT22;32569;51.762;8.564;2022-08-04T09:18:22;29.80;93.90
15231;DHT22;32569;51.762;8.564;2022-08-04T09:20:55;29.90;93.60
15231;DHT22;32569;51.762;8.564;2022-08-04T09:23:29;30.00;93.70
15231;DHT22;32569;51.762;8.564;2022-08-04T09:26:01;30.10;94.10
15231;DHT22;32569;51.762;8.564;2022-08-04T09:28:37;30.10;93.50
15231;DHT22;32569;51.762;8.564;2022-08-04T09:31:12;30.20;93.40
15231;DHT22;32569;51.762;8.564;2022-08-04T09:33:47;30.30;92.80
15231;DHT22;32569;51.762;8.564;2022-08-04T09:36:23;30.40;92.60
15231;DHT22;32569;51.762;8.564;2022-08-04T09:39:03;30.40;92.60
15231;DHT22;32569;51.762;8.564;2022-08-04T09:41:36;30.60;92.70
15231;DHT22;32569;51.762;8.564;2022-08-04T09:44:23;30.70;92.50
15231;DHT22;32569;51.762;8.564;2022-08-04T09:47:01;30.70;92.00
15231;DHT22;32569;51.762;8.564;2022-08-04T09:49:37;30.70;91.50
15231;DHT22;32569;51.762;8.564;2022-08-04T09:52:08;30.80;91.50
15231;DHT22;32569;51.762;8.564;2022-08-04T09:54:44;30.80;92.80
15231;DHT22;32569;51.762;8.564;2022-08-04T09:57:15;30.90;91.80
15231;DHT22;32569;51.762;8.564;2022-08-04T09:59:51;31.00;91.90
15231;DHT22;32569;51.762;8.564;2022-08-04T10:02:21;31.10;91.40
15231;DHT22;32569;51.762;8.564;2022-08-04T10:04:50;31.20;91.70
15231;DHT22;32569;51.762;8.564;2022-08-04T10:10:17;31.30;91.10
15231;DHT22;32569;51.762;8.564;2022-08-04T10:12:58;31.30;90.60
15231;DHT22;32569;51.762;8.564;2022-08-04T10:15:33;31.50;90.30
15231;DHT22;32569;51.762;8.564;2022-08-04T10:18:16;31.50;90.20
15231;DHT22;32569;51.762;8.564;2022-08-04T10:21:07;31.60;90.00
15231;DHT22;32569;51.762;8.564;2022-08-04T10:23:45;31.60;90.50
15231;DHT22;32569;51.762;8.564;2022-08-04T10:26:24;31.70;89.70
15231;DHT22;32569;51.762;8.564;2022-08-04T10:28:57;31.70;90.50
15231;DHT22;32569;51.762;8.564;2022-08-04T10:31:28;31.80;90.30
15231;DHT22;32569;51.762;8.564;2022-08-04T10:34:01;31.80;90.70
15231;DHT22;32569;51.762;8.564;2022-08-04T10:36:38;31.80;89.70
15231;DHT22;32569;51.762;8.564;2022-08-04T10:39:09;31.70;89.70
15231;DHT22;32569;51.762;8.564;2022-08-04T10:41:41;31.70;90.00
15231;DHT22;32569;51.762;8.564;2022-08-04T10:44:16;31.70;90.00
15231;DHT22;32569;51.762;8.564;2022-08-04T10:46:52;31.90;88.30
15231;DHT22;32569;51.762;8.564;2022-08-04T10:49:35;32.00;88.00
15231;DHT22;32569;51.762;8.564;2022-08-04T10:52:07;32.00;88.00
15231;DHT22;32569;51.762;8.564;2022-08-04T10:54:42;32.10;87.60
15231;DHT22;32569;51.762;8.564;2022-08-04T10:57:17;32.10;86.90
15231;DHT22;32569;51.762;8.564;2022-08-04T10:59:51;32.10;86.70
15231;DHT22;32569;51.762;8.564;2022-08-04T11:02:29;32.20;85.90
15231;DHT22;32569;51.762;8.564;2022-08-04T11:05:08;32.30;86.20
15231;DHT22;32569;51.762;8.564;2022-08-04T11:07:38;32.30;87.00
15231;DHT22;32569;51.762;8.564;2022-08-04T11:10:07;32.30;88.80
15231;DHT22;32569;51.762;8.564;2022-08-04T11:12:37;32.40;86.70
15231;DHT22;32569;51.762;8.564;2022-08-04T11:15:08;32.40;87.00
15231;DHT22;32569;51.762;8.564;2022-08-04T11:17:40;32.40;89.00
15231;DHT22;32569;51.762;8.564;2022-08-04T11:20:17;32.50;86.70
15231;DHT22;32569;51.762;8.564;2022-08-04T11:22:51;32.70;85.70
15231;DHT22;32569;51.762;8.564;2022-08-04T11:25:24;32.70;85.10
15231;DHT22;32569;51.762;8.564;2022-08-04T11:28:01;32.70;85.90
15231;DHT22;32569;51.762;8.564;2022-08-04T11:30:33;32.70;85.60
15231;DHT22;32569;51.762;8.564;2022-08-04T11:33:04;32.70;86.50
15231;DHT22;32569;51.762;8.564;2022-08-04T11:35:37;32.80;86.10
15231;DHT22;32569;51.762;8.564;2022-08-04T11:38:10;32.80;85.20
15231;DHT22;32569;51.762;8.564;2022-08-04T11:40:41;32.90;86.00
15231;DHT22;32569;51.762;8.564;2022-08-04T11:43:11;32.90;85.40
15231;DHT22;32569;51.762;8.564;2022-08-04T11:45:46;33.00;85.00
15231;DHT22;32569;51.762;8.564;2022-08-04T11:48:17;33.10;84.70
15231;DHT22;32569;51.762;8.564;2022-08-04T11:50:50;33.10;85.10
15231;DHT22;32569;51.762;8.564;2022-08-04T11:53:19;33.10;85.50
15231;DHT22;32569;51.762;8.564;2022-08-04T11:55:51;33.20;85.80
15231;DHT22;32569;51.762;8.564;2022-08-04T11:58:20;33.30;83.90
15231;DHT22;32569;51.762;8.564;2022-08-04T12:00:54;33.30;84.40
15231;DHT22;32569;51.762;8.564;2022-08-04T12:03:34;33.10;84.80
15231;DHT22;32569;51.762;8.564;2022-08-04T12:06:16;33.10;85.60
15231;DHT22;32569;51.762;8.564;2022-08-04T12:09:06;33.20;86.40
15231;DHT22;32569;51.762;8.564;2022-08-04T12:11:54;33.30;84.60
15231;DHT22;32569;51.762;8.564;2022-08-04T12:14:35;33.40;85.70
15231;DHT22;32569;51.762;8.564;2022-08-04T12:17:06;33.40;83.80
15231;DHT22;32569;51.762;8.564;2022-08-04T12:19:40;33.40;82.90
15231;DHT22;32569;51.762;8.564;2022-08-04T12:22:14;33.50;83.40
15231;DHT22;32569;51.762;8.564;2022-08-04T12:24:48;33.60;81.80
15231;DHT22;32569;51.762;8.564;2022-08-04T12:27:20;33.70;82.80
15231;DHT22;32569;51.762;8.564;2022-08-04T12:29:47;33.90;82.00
15231;DHT22;32569;51.762;8.564;2022-08-04T12:32:21;33.90;82.30
15231;DHT22;32569;51.762;8.564;2022-08-04T12:34:59;33.90;82.10
15231;DHT22;32569;51.762;8.564;2022-08-04T12:37:40;33.90;81.90
15231;DHT22;32569;51.762;8.564;2022-08-04T12:40:14;34.00;81.50
15231;DHT22;32569;51.762;8.564;2022-08-04T12:42:46;34.00;80.50
15231;DHT22;32569;51.762;8.564;2022-08-04T12:45:18;33.90;79.90
15231;DHT22;32569;51.762;8.564;2022-08-04T12:47:50;33.90;80.80
15231;DHT22;32569;51.762;8.564;2022-08-04T12:50:19;34.10;78.30
15231;DHT22;32569;51.762;8.564;2022-08-04T12:52:51;34.20;78.20
15231;DHT22;32569;51.762;8.564;2022-08-04T12:55:24;34.20;77.80
15231;DHT22;32569;51.762;8.564;2022-08-04T12:57:54;34.20;77.40
15231;DHT22;32569;51.762;8.564;2022-08-04T13:00:27;34.20;78.40
15231;DHT22;32569;51.762;8.564;2022-08-04T13:03:02;34.30;77.80
15231;DHT22;32569;51.762;8.564;2022-08-04T13:05:32;34.20;75.20
15231;DHT22;32569;51.762;8.564;2022-08-04T13:08:02;34.10;75.00
15231;DHT22;32569;51.762;8.564;2022-08-04T13:10:31;34.20;73.50
15231;DHT22;32569;51.762;8.564;2022-08-04T13:13:03;34.40;71.80
15231;DHT22;32569;51.762;8.564;2022-08-04T13:15:31;34.50;73.20
15231;DHT22;32569;51.762;8.564;2022-08-04T13:18:02;34.50;73.80
15231;DHT22;32569;51.762;8.564;2022-08-04T13:20:32;34.50;72.50
15231;DHT22;32569;51.762;8.564;2022-08-04T13:23:07;34.40;73.70
15231;DHT22;32569;51.762;8.564;2022-08-04T13:25:40;34.40;73.50
15231;DHT22;32569;51.762;8.564;2022-08-04T13:28:12;34.30;75.00
15231;DHT22;32569;51.762;8.564;2022-08-04T13:30:39;34.50;75.00
15231;DHT22;32569;51.762;8.564;2022-08-04T13:33:07;34.50;74.00
15231;DHT22;32569;51.762;8.564;2022-08-04T13:35:42;34.60;75.00
15231;DHT22;32569;51.762;8.564;2022-08-04T13:38:13;34.70;74.40
15231;DHT22;32569;51.762;8.564;2022-08-04T13:40:41;34.50;73.40
15231;DHT22;32569;51.762;8.564;2022-08-04T13:43:21;34.40;74.00
15231;DHT22;32569;51.762;8.564;2022-08-04T13:45:49;34.50;74.80
15231;DHT22;32569;51.762;8.564;2022-08-04T13:48:18;34.40;74.20
15231;DHT22;32569;51.762;8.564;2022-08-04T13:50:46;34.50;75.20
15231;DHT22;32569;51.762;8.564;2022-08-04T13:53:16;34.50;80.30
15231;DHT22;32569;51.762;8.564;2022-08-04T13:55:45;34.40;82.50
15231;DHT22;32569;51.762;8.564;2022-08-04T13:58:19;33.90;83.50
15231;DHT22;32569;51.762;8.564;2022-08-04T14:00:53;33.70;84.30
15231;DHT22;32569;51.762;8.564;2022-08-04T14:03:27;33.50;84.40
15231;DHT22;32569;51.762;8.564;2022-08-04T14:06:16;33.50;85.10
15231;DHT22;32569;51.762;8.564;2022-08-04T14:08:51;33.40;85.10
15231;DHT22;32569;51.762;8.564;2022-08-04T14:11:23;33.30;85.50
15231;DHT22;32569;51.762;8.564;2022-08-04T14:13:57;33.30;85.90
15231;DHT22;32569;51.762;8.564;2022-08-04T14:16:24;33.30;84.80
15231;DHT22;32569;51.762;8.564;2022-08-04T14:18:57;33.40;84.50
15231;DHT22;32569;51.762;8.564;2022-08-04T14:21:25;33.30;84.90
15231;DHT22;32569;51.762;8.564;2022-08-04T14:23:55;33.10;84.80
15231;DHT22;32569;51.762;8.564;2022-08-04T14:26:25;33.10;85.40
15231;DHT22;32569;51.762;8.564;2022-08-04T14:28:53;33.10;85.60
15231;DHT22;32569;51.762;8.564;2022-08-04T14:31:24;33.10;86.00
15231;DHT22;32569;51.762;8.564;2022-08-04T14:33:52;33.10;85.90
15231;DHT22;32569;51.762;8.564;2022-08-04T14:36:22;33.00;85.40
15231;DHT22;32569;51.762;8.564;2022-08-04T14:38:52;33.00;85.60
15231;DHT22;32569;51.762;8.564;2022-08-04T14:41:25;32.90;85.50
15231;DHT22;32569;51.762;8.564;2022-08-04T14:43:54;32.90;85.30
15231;DHT22;32569;51.762;8.564;2022-08-04T14:46:23;32.80;85.90
15231;DHT22;32569;51.762;8.564;2022-08-04T14:49:05;32.70;85.40
15231;DHT22;32569;51.762;8.564;2022-08-04T14:51:38;32.60;85.00
15231;DHT22;32569;51.762;8.564;2022-08-04T14:54:05;32.60;85.10
15231;DHT22;32569;51.762;8.564;2022-08-04T14:56:35;32.40;85.10
15231;DHT22;32569;51.762;8.564;2022-08-04T14:59:04;32.40;85.50
15231;DHT22;32569;51.762;8.564;2022-08-04T15:01:33;32.40;85.90
15231;DHT22;32569;51.762;8.564;2022-08-04T15:04:02;32.20;87.10
15231;DHT22;32569;51.762;8.564;2022-08-04T15:06:30;32.00;88.60
15231;DHT22;32569;51.762;8.564;2022-08-04T15:08:59;31.80;89.50
15231;DHT22;32569;51.762;8.564;2022-08-04T15:11:27;31.90;90.10
15231;DHT22;32569;51.762;8.564;2022-08-04T15:14:00;31.70;90.50
15231;DHT22;32569;51.762;8.564;2022-08-04T15:16:29;31.50;90.80
15231;DHT22;32569;51.762;8.564;2022-08-04T15:18:57;31.40;91.20
15231;DHT22;32569;51.762;8.564;2022-08-04T15:21:26;31.40;91.40
15231;DHT22;32569;51.762;8.564;2022-08-04T15:23:54;31.40;91.50
15231;DHT22;32569;51.762;8.564;2022-08-04T15:26:26;31.30;91.60
15231;DHT22;32569;51.762;8.564;2022-08-04T15:29:00;31.20;91.30
15231;DHT22;32569;51.762;8.564;2022-08-04T15:31:29;31.10;91.60
15231;DHT22;32569;51.762;8.564;2022-08-04T15:34:00;31.00;91.70
15231;DHT22;32569;51.762;8.564;2022-08-04T15:36:41;31.10;91.90
15231;DHT22;32569;51.762;8.564;2022-08-04T15:39:19;31.10;91.90
15231;DHT22;32569;51.762;8.564;2022-08-04T15:41:55;30.90;92.00
15231;DHT22;32569;51.762;8.564;2022-08-04T15:47:40;30.80;92.60
15231;DHT22;32569;51.762;8.564;2022-08-04T15:50:09;30.70;92.80
15231;DHT22;32569;51.762;8.564;2022-08-04T15:52:59;30.80;93.00
15231;DHT22;32569;51.762;8.564;2022-08-04T15:55:34;30.70;92.70
15231;DHT22;32569;51.762;8.564;2022-08-04T15:58:03;30.60;92.80
15231;DHT22;32569;51.762;8.564;2022-08-04T16:03:43;30.50;93.10
15231;DHT22;32569;51.762;8.564;2022-08-04T16:06:41;30.50;93.00
15231;DHT22;32569;51.762;8.564;2022-08-04T16:09:20;30.50;93.30
15231;DHT22;32569;51.762;8.564;2022-08-04T16:11:48;30.50;93.30
15231;DHT22;32569;51.762;8.564;2022-08-04T16:14:15;30.50;93.20
15231;DHT22;32569;51.762;8.564;2022-08-04T16:16:47;30.40;93.50
15231;DHT22;32569;51.762;8.564;2022-08-04T16:19:27;30.40;93.40
15231;DHT22;32569;51.762;8.564;2022-08-04T16:22:01;30.30;93.80
15231;DHT22;32569;51.762;8.564;2022-08-04T16:24:29;30.20;93.70
15231;DHT22;32569;51.762;8.564;2022-08-04T16:26:57;30.10;93.70
15231;DHT22;32569;51.762;8.564;2022-08-04T16:29:33;30.10;93.90
15231;DHT22;32569;51.762;8.564;2022-08-04T16:34:56;30.10;94.10
15231;DHT22;32569;51.762;8.564;2022-08-04T16:37:31;30.00;94.10
15231;DHT22;32569;51.762;8.564;2022-08-04T16:40:33;30.00;94.10
15231;DHT22;32569;51.762;8.564;2022-08-04T16:43:03;29.90;94.70
15231;DHT22;32569;51.762;8.564;2022-08-04T16:45:41;29.90;95.00
15231;DHT22;32569;51.762;8.564;2022-08-04T16:48:09;29.80;95.00
15231;DHT22;32569;51.762;8.564;2022-08-04T16:50:47;29.70;94.80
15231;DHT22;32569;51.762;8.564;2022-08-04T16:53:15;29.60;94.90
15231;DHT22;32569;51.762;8.564;2022-08-04T16:55:47;29.50;95.10
15231;DHT22;32569;51.762;8.564;2022-08-04T16:58:28;29.40;95.00
15231;DHT22;32569;51.762;8.564;2022-08-04T17:00:57;29.40;95.10